Lake Clarke, Florida
Current Conditions -  °F | °C
As of 10:53 AM on Friday 31 Oct 2014 (Local Time) from KPBI Reporting Station
Scattered Clouds Scattered Clouds  
Wind Chill: 80°   Ceiling: Unl
Heat Index: 83°   Visibility: 10mi
Dew Point: 68°   Wind: 13mph
Humidity: 67%   Direction: 260°W
Pressure: 29.86"   Gusts: NA
Location:  26.6662°N, 80.0908°W
Report Text: KPBI 311453Z 26011KT 10SM FEW020 SCT100 SCT250 27/20 A2986 RMK AO2 SLP110 T02670200 50008
Loading
Personal Weather Stations






























Interactive Weather Map
Tropical Storm Tracking
New forecast layout! Learn more

10-Day Weather Forecast

Advertisements
Track Severe Weather on mobile